Time;durP1;ratioP1;P1;durP2;ratioP2;P2;SDS_P1;SDS_P2;PMS_P1;PMS_P2;Temp;Humidity;BMP_temperature;BMP_pressure;BME280_temperature;BME280_humidity;BME280_pressure;Samples;Min_cycle;Max_cycle;Signal;HPM_P1;HPM_P2
2023/07/15 00:00:22;;;;;;;4.53;2.60;;;;;;;;;;5052991;28;20028;-61
2023/07/15 00:02:47;;;;;;;4.18;2.45;;;;;;;;;;5053895;28;20037;-60
2023/07/15 00:05:22;;;;;;;5.35;2.58;;;;;;;;;;5050621;28;20035;-61
2023/07/15 00:07:48;;;;;;;5.00;2.72;;;;;;;;;;5052274;28;20029;-61
2023/07/15 00:10:15;;;;;;;5.32;2.53;;;;;;;;;;5052740;28;20091;-60
2023/07/15 00:12:40;;;;;;;5.90;2.50;;;;;;;;;;5053645;28;20098;-61
2023/07/15 00:15:09;;;;;;;5.07;2.78;;;;;;;;;;5052696;28;20401;-60
2023/07/15 00:17:34;;;;;;;5.43;2.50;;;;;;;;;;5050938;28;20055;-61
2023/07/15 00:20:00;;;;;;;2.90;2.17;;;;;;;;;;5033472;28;20466;-61
2023/07/15 00:22:25;;;;;;;3.63;2.30;;;;;;;;;;5032574;28;20034;-59
2023/07/15 00:24:51;;;;;;;3.60;2.10;;;;;;;;;;5033462;28;20120;-60
2023/07/15 00:27:16;;;;;;;5.20;2.28;;;;;;;;;;5032485;28;20108;-61
2023/07/15 00:29:42;;;;;;;3.88;2.20;;;;;;;;;;5051596;28;20458;-60
2023/07/15 00:32:17;;;;;;;6.55;2.45;;;;;;;;;;5052369;28;20029;-61
2023/07/15 00:34:42;;;;;;;3.17;2.17;;;;;;;;;;5051994;28;20381;-59
2023/07/15 00:37:08;;;;;;;5.95;2.38;;;;;;;;;;5052144;28;20036;-60
2023/07/15 00:39:35;;;;;;;5.45;2.20;;;;;;;;;;5049915;28;20416;-59
2023/07/15 00:42:08;;;;;;;5.60;2.20;;;;;;;;;;5053004;28;20033;-59
2023/07/15 00:44:33;;;;;;;4.95;2.13;;;;;;;;;;5051410;28;20053;-59
2023/07/15 00:47:02;;;;;;;4.95;2.20;;;;;;;;;;5052991;28;20032;-59
2023/07/15 00:49:37;;;;;;;7.90;2.20;;;;;;;;;;5049987;28;20036;-59
2023/07/15 00:52:09;;;;;;;4.05;2.17;;;;;;;;;;5052664;28;20037;-62
2023/07/15 00:54:38;;;;;;;5.63;2.42;;;;;;;;;;5052746;28;20036;-59
2023/07/15 00:57:06;;;;;;;4.80;2.20;;;;;;;;;;5052576;28;20037;-63
2023/07/15 00:59:32;;;;;;;4.95;2.20;;;;;;;;;;5050655;28;20474;-59
2023/07/15 01:01:58;;;;;;;3.83;2.10;;;;;;;;;;5052371;28;20033;-59
2023/07/15 01:04:23;;;;;;;3.78;2.13;;;;;;;;;;5050562;28;20044;-59
2023/07/15 01:06:49;;;;;;;4.63;2.20;;;;;;;;;;5051249;28;20416;-59
2023/07/15 01:09:14;;;;;;;5.38;2.42;;;;;;;;;;5040126;28;20108;-60
2023/07/15 01:11:40;;;;;;;3.67;1.92;;;;;;;;;;5035313;28;20116;-59
2023/07/15 01:14:06;;;;;;;4.57;2.10;;;;;;;;;;5051662;28;20086;-63
2023/07/15 01:16:32;;;;;;;5.30;2.20;;;;;;;;;;5051830;28;20531;-60
2023/07/15 01:18:58;;;;;;;4.00;2.55;;;;;;;;;;5049870;28;20040;-59
2023/07/15 01:21:27;;;;;;;5.88;2.22;;;;;;;;;;5048933;28;20771;-60
2023/07/15 01:23:53;;;;;;;3.88;2.13;;;;;;;;;;5032402;28;20113;-60
2023/07/15 01:26:18;;;;;;;4.40;2.00;;;;;;;;;;5037731;28;20041;-59
2023/07/15 01:28:43;;;;;;;4.95;2.10;;;;;;;;;;5050166;28;20060;-59
2023/07/15 01:31:09;;;;;;;5.95;2.10;;;;;;;;;;5051220;28;20033;-61
2023/07/15 01:33:34;;;;;;;6.10;2.30;;;;;;;;;;5052360;28;20029;-60
2023/07/15 01:36:00;;;;;;;4.05;1.90;;;;;;;;;;5052000;28;20480;-60
2023/07/15 01:38:25;;;;;;;5.55;2.10;;;;;;;;;;5051830;28;20032;-59
2023/07/15 01:40:51;;;;;;;4.88;2.10;;;;;;;;;;5052225;28;20032;-60
2023/07/15 01:43:16;;;;;;;4.30;1.88;;;;;;;;;;5051122;28;20425;-60
2023/07/15 01:45:41;;;;;;;4.30;2.30;;;;;;;;;;5051862;28;20069;-59
2023/07/15 01:48:07;;;;;;;3.88;2.20;;;;;;;;;;5045770;28;20152;-63
2023/07/15 01:50:33;;;;;;;3.33;1.98;;;;;;;;;;5031357;28;20382;-59
2023/07/15 01:52:59;;;;;;;4.88;2.00;;;;;;;;;;5031599;28;20083;-60
2023/07/15 01:55:25;;;;;;;4.50;2.20;;;;;;;;;;5029521;28;20065;-59
2023/07/15 01:57:50;;;;;;;3.17;2.00;;;;;;;;;;5045381;28;20409;-60
2023/07/15 02:00:16;;;;;;;4.35;2.30;;;;;;;;;;5050892;28;20027;-60
2023/07/15 02:02:43;;;;;;;3.40;2.10;;;;;;;;;;5051670;28;20045;-60
2023/07/15 02:05:09;;;;;;;4.10;2.13;;;;;;;;;;5051243;28;20484;-63
2023/07/15 02:07:34;;;;;;;6.20;2.10;;;;;;;;;;5049280;28;20033;-60
2023/07/15 02:10:00;;;;;;;3.60;2.00;;;;;;;;;;5051554;28;20029;-60
2023/07/15 02:12:25;;;;;;;6.07;2.67;;;;;;;;;;5050883;28;20032;-60
2023/07/15 02:14:51;;;;;;;3.60;1.98;;;;;;;;;;5051520;28;20113;-61
2023/07/15 02:17:20;;;;;;;2.47;1.90;;;;;;;;;;5048261;28;20481;-61
2023/07/15 02:19:47;;;;;;;3.63;2.10;;;;;;;;;;5051490;28;20093;-60
2023/07/15 02:22:13;;;;;;;4.05;2.28;;;;;;;;;;5050524;28;20390;-60
2023/07/15 02:24:38;;;;;;;5.30;2.15;;;;;;;;;;5050212;28;20520;-60
2023/07/15 02:27:04;;;;;;;2.95;2.10;;;;;;;;;;5048647;28;20037;-60
2023/07/15 02:29:30;;;;;;;4.93;2.13;;;;;;;;;;5054750;28;20029;-60
2023/07/15 02:31:55;;;;;;;8.63;2.20;;;;;;;;;;5055831;28;20021;-60
2023/07/15 02:34:21;;;;;;;3.95;2.05;;;;;;;;;;5054666;28;20128;-60
2023/07/15 02:36:49;;;;;;;3.60;1.92;;;;;;;;;;5055277;28;20033;-60
2023/07/15 02:39:16;;;;;;;4.05;2.10;;;;;;;;;;5034190;28;20028;-60
2023/07/15 02:41:41;;;;;;;5.43;2.20;;;;;;;;;;5047072;28;20025;-60
2023/07/15 02:44:06;;;;;;;4.65;2.10;;;;;;;;;;5054870;28;20052;-61
2023/07/15 02:46:32;;;;;;;3.17;2.20;;;;;;;;;;5054216;28;20590;-60
2023/07/15 02:48:57;;;;;;;5.20;2.20;;;;;;;;;;5037591;28;20036;-60
2023/07/15 02:51:24;;;;;;;3.88;2.15;;;;;;;;;;5034411;28;20029;-60
2023/07/15 02:53:52;;;;;;;3.08;2.15;;;;;;;;;;5035027;28;20583;-60
2023/07/15 02:56:18;;;;;;;4.80;2.30;;;;;;;;;;5034314;28;20033;-60
2023/07/15 02:58:43;;;;;;;3.38;2.05;;;;;;;;;;5047897;28;20047;-60
2023/07/15 03:01:09;;;;;;;3.53;2.10;;;;;;;;;;5054805;28;20032;-61
2023/07/15 03:03:36;;;;;;;4.95;2.20;;;;;;;;;;5054217;28;20117;-60
2023/07/15 03:06:01;;;;;;;4.32;2.42;;;;;;;;;;5054673;28;20374;-60
2023/07/15 03:08:26;;;;;;;6.53;2.30;;;;;;;;;;5048168;28;20032;-60
2023/07/15 03:10:52;;;;;;;3.45;2.03;;;;;;;;;;5054153;28;20036;-60
2023/07/15 03:13:17;;;;;;;2.85;2.15;;;;;;;;;;5053835;28;20487;-60
2023/07/15 03:15:44;;;;;;;3.78;2.22;;;;;;;;;;5054650;28;20036;-60
2023/07/15 03:18:10;;;;;;;8.02;2.30;;;;;;;;;;5053649;28;20078;-60
2023/07/15 03:20:35;;;;;;;4.93;2.00;;;;;;;;;;5051849;28;20112;-60
2023/07/15 03:23:00;;;;;;;4.60;2.28;;;;;;;;;;5054494;28;20066;-60
2023/07/15 03:25:26;;;;;;;3.47;2.20;;;;;;;;;;5054948;28;20380;-61
2023/07/15 03:27:51;;;;;;;6.85;2.13;;;;;;;;;;5050925;28;20025;-60
2023/07/15 03:30:17;;;;;;;4.20;2.17;;;;;;;;;;5034198;28;20033;-61
2023/07/15 03:32:43;;;;;;;4.68;2.13;;;;;;;;;;5054702;28;20091;-60
2023/07/15 03:35:09;;;;;;;4.43;2.25;;;;;;;;;;5054164;28;20037;-60
2023/07/15 03:37:36;;;;;;;3.65;2.20;;;;;;;;;;5048218;28;20108;-60
2023/07/15 03:40:08;;;;;;;5.07;2.60;;;;;;;;;;5034263;28;20037;-60
2023/07/15 03:42:33;;;;;;;3.67;2.10;;;;;;;;;;5033148;28;20081;-60
2023/07/15 03:44:59;;;;;;;5.35;2.58;;;;;;;;;;5034359;28;20072;-59
2023/07/15 03:47:24;;;;;;;3.70;2.25;;;;;;;;;;5032722;28;20030;-60
2023/07/15 03:49:51;;;;;;;3.78;2.30;;;;;;;;;;5033829;28;20486;-59
2023/07/15 03:52:16;;;;;;;3.03;2.38;;;;;;;;;;5049347;28;20051;-63
2023/07/15 03:54:42;;;;;;;6.22;2.70;;;;;;;;;;5054116;28;20397;-60
2023/07/15 03:57:08;;;;;;;3.92;2.33;;;;;;;;;;5051366;28;20465;-61
2023/07/15 03:59:33;;;;;;;4.53;2.35;;;;;;;;;;5033089;28;20025;-60
2023/07/15 04:01:58;;;;;;;3.83;2.40;;;;;;;;;;5046419;28;20031;-60
2023/07/15 04:04:24;;;;;;;5.35;2.53;;;;;;;;;;5053129;28;20071;-60
2023/07/15 04:06:49;;;;;;;3.35;2.25;;;;;;;;;;5052616;28;20472;-60
2023/07/15 04:09:16;;;;;;;5.10;2.60;;;;;;;;;;5035336;28;20089;-64
2023/07/15 04:11:42;;;;;;;5.50;2.60;;;;;;;;;;5045839;28;20114;-61
2023/07/15 04:14:08;;;;;;;3.15;2.20;;;;;;;;;;5054035;28;20039;-60
2023/07/15 04:16:33;;;;;;;4.47;2.30;;;;;;;;;;5049417;28;20037;-61
2023/07/15 04:18:59;;;;;;;4.18;2.33;;;;;;;;;;5040934;28;20481;-59
2023/07/15 04:21:24;;;;;;;3.55;2.30;;;;;;;;;;5045805;28;20450;-60
2023/07/15 04:23:51;;;;;;;4.00;2.35;;;;;;;;;;5033461;28;20167;-59
2023/07/15 04:26:22;;;;;;;4.20;2.30;;;;;;;;;;5033264;28;20033;-65
2023/07/15 04:28:48;;;;;;;4.63;2.45;;;;;;;;;;5033313;28;20032;-61
2023/07/15 04:31:13;;;;;;;3.20;2.10;;;;;;;;;;5033294;28;20120;-60
2023/07/15 04:33:38;;;;;;;3.67;2.60;;;;;;;;;;5039709;28;20029;-60
2023/07/15 04:36:04;;;;;;;4.68;2.22;;;;;;;;;;5052641;28;20060;-60
2023/07/15 04:38:29;;;;;;;3.20;2.20;;;;;;;;;;5052484;28;20029;-60
2023/07/15 04:40:55;;;;;;;4.18;2.20;;;;;;;;;;5052930;28;20036;-61
2023/07/15 04:43:22;;;;;;;5.30;2.20;;;;;;;;;;5052132;28;20063;-63
2023/07/15 04:45:48;;;;;;;2.75;2.05;;;;;;;;;;5037701;28;20044;-61
2023/07/15 04:48:14;;;;;;;4.70;2.20;;;;;;;;;;5032863;28;20029;-60
2023/07/15 04:50:40;;;;;;;3.88;2.00;;;;;;;;;;5031825;28;20098;-61
2023/07/15 04:53:05;;;;;;;4.82;2.17;;;;;;;;;;5040796;28;20077;-61
2023/07/15 04:55:31;;;;;;;3.78;2.03;;;;;;;;;;5052111;28;20099;-60
2023/07/15 04:57:56;;;;;;;2.90;2.10;;;;;;;;;;5052657;28;20029;-60
2023/07/15 05:00:22;;;;;;;4.75;2.00;;;;;;;;;;5051759;28;20037;-62
2023/07/15 05:02:49;;;;;;;4.43;2.20;;;;;;;;;;5052560;28;20025;-62
2023/07/15 05:05:15;;;;;;;4.15;2.30;;;;;;;;;;5052274;28;20036;-61
2023/07/15 05:07:40;;;;;;;3.70;2.00;;;;;;;;;;5069371;28;20106;-61
2023/07/15 05:10:06;;;;;;;3.60;2.10;;;;;;;;;;5063341;28;20449;-60
2023/07/15 05:12:31;;;;;;;3.63;2.20;;;;;;;;;;5064227;28;20028;-62
2023/07/15 05:14:56;;;;;;;2.95;2.08;;;;;;;;;;5061801;28;20041;-61
2023/07/15 05:17:22;;;;;;;5.03;2.30;;;;;;;;;;5053350;28;20037;-64
2023/07/15 05:19:47;;;;;;;6.25;2.28;;;;;;;;;;5052482;28;20380;-59
2023/07/15 05:22:13;;;;;;;4.18;2.10;;;;;;;;;;5056976;28;20044;-60
2023/07/15 05:24:38;;;;;;;4.53;2.28;;;;;;;;;;5071676;28;20035;-60
2023/07/15 05:27:05;;;;;;;5.15;1.90;;;;;;;;;;5062286;28;20040;-60
2023/07/15 05:29:30;;;;;;;3.50;2.10;;;;;;;;;;5050350;28;20029;-60
2023/07/15 05:31:55;;;;;;;4.10;2.15;;;;;;;;;;5052239;28;20029;-65
2023/07/15 05:34:21;;;;;;;3.58;2.13;;;;;;;;;;5050935;28;20037;-63
2023/07/15 05:36:47;;;;;;;4.65;2.30;;;;;;;;;;5051322;28;20029;-61
2023/07/15 05:39:13;;;;;;;3.20;2.00;;;;;;;;;;5040603;28;20091;-60
2023/07/15 05:41:39;;;;;;;3.90;1.98;;;;;;;;;;5039742;28;20025;-60
2023/07/15 05:44:04;;;;;;;3.85;2.08;;;;;;;;;;5049713;28;20056;-60
2023/07/15 05:46:30;;;;;;;5.13;2.38;;;;;;;;;;5039866;28;20043;-60
2023/07/15 05:48:56;;;;;;;6.82;2.33;;;;;;;;;;5043282;28;20027;-60
2023/07/15 05:51:22;;;;;;;3.08;2.10;;;;;;;;;;5051193;28;20036;-63
2023/07/15 05:53:47;;;;;;;3.50;2.15;;;;;;;;;;5038486;28;20099;-60
2023/07/15 05:56:12;;;;;;;4.72;2.30;;;;;;;;;;5047709;28;20029;-62
2023/07/15 05:58:38;;;;;;;3.95;2.15;;;;;;;;;;5043311;28;20509;-59
2023/07/15 06:01:04;;;;;;;4.38;2.25;;;;;;;;;;5046061;28;20028;-59
2023/07/15 06:03:30;;;;;;;7.05;2.50;;;;;;;;;;5050071;28;20032;-60
2023/07/15 06:06:02;;;;;;;4.38;2.22;;;;;;;;;;5032772;28;20030;-60
2023/07/15 06:08:28;;;;;;;4.80;2.05;;;;;;;;;;5031653;28;20104;-61
2023/07/15 06:10:54;;;;;;;3.60;2.15;;;;;;;;;;5031986;28;20116;-60
2023/07/15 06:13:19;;;;;;;2.90;2.20;;;;;;;;;;5031552;28;20359;-59
2023/07/15 06:15:51;;;;;;;5.40;2.22;;;;;;;;;;5029884;28;20033;-60
2023/07/15 06:18:17;;;;;;;3.72;2.10;;;;;;;;;;5035843;28;20034;-60
2023/07/15 06:20:42;;;;;;;4.72;2.10;;;;;;;;;;5050694;28;20161;-60
2023/07/15 06:23:08;;;;;;;4.72;2.00;;;;;;;;;;5043200;28;20057;-60
2023/07/15 06:25:34;;;;;;;6.85;2.17;;;;;;;;;;5030791;28;20045;-60
2023/07/15 06:27:59;;;;;;;5.47;1.92;;;;;;;;;;5031658;28;20033;-60
2023/07/15 06:30:26;;;;;;;3.90;2.10;;;;;;;;;;5029702;28;20053;-62
2023/07/15 06:32:51;;;;;;;3.55;2.20;;;;;;;;;;5032017;28;20029;-61
2023/07/15 06:35:19;;;;;;;5.93;2.05;;;;;;;;;;5032340;28;20082;-61
2023/07/15 06:37:48;;;;;;;5.13;1.98;;;;;;;;;;5030916;28;20684;-62
2023/07/15 06:40:20;;;;;;;6.03;1.90;;;;;;;;;;5031771;28;20115;-61
2023/07/15 06:42:46;;;;;;;5.25;2.28;;;;;;;;;;5030639;28;20073;-61
2023/07/15 06:45:12;;;;;;;4.80;2.10;;;;;;;;;;5031198;28;20120;-61
2023/07/15 06:47:38;;;;;;;5.60;2.10;;;;;;;;;;5030461;28;20454;-62
2023/07/15 06:50:04;;;;;;;4.93;2.00;;;;;;;;;;5031637;28;20041;-61
2023/07/15 06:52:30;;;;;;;2.95;1.92;;;;;;;;;;5042352;28;20477;-62
2023/07/15 06:54:55;;;;;;;4.80;2.40;;;;;;;;;;5051625;28;20040;-61
2023/07/15 06:57:21;;;;;;;3.25;2.20;;;;;;;;;;5051085;28;20051;-61
2023/07/15 06:59:47;;;;;;;3.72;2.10;;;;;;;;;;5050572;28;20465;-61
2023/07/15 07:02:13;;;;;;;3.83;2.05;;;;;;;;;;5051365;28;20028;-60
2023/07/15 07:04:38;;;;;;;4.53;1.92;;;;;;;;;;5052986;28;20049;-61
2023/07/15 07:07:04;;;;;;;5.95;2.10;;;;;;;;;;5053119;28;20033;-60
2023/07/15 07:09:29;;;;;;;4.55;1.90;;;;;;;;;;5048463;28;20029;-60
2023/07/15 07:11:57;;;;;;;4.72;1.95;;;;;;;;;;5041230;28;20450;-63
2023/07/15 07:14:23;;;;;;;5.43;2.00;;;;;;;;;;5033415;28;20049;-60
2023/07/15 07:16:48;;;;;;;5.43;1.95;;;;;;;;;;5034142;28;20076;-61
2023/07/15 07:19:14;;;;;;;6.65;2.10;;;;;;;;;;5035067;28;20353;-60
2023/07/15 07:21:39;;;;;;;3.58;1.92;;;;;;;;;;5034105;28;20029;-60
2023/07/15 07:24:05;;;;;;;6.32;2.17;;;;;;;;;;5034550;28;20446;-61
2023/07/15 07:26:31;;;;;;;4.00;1.98;;;;;;;;;;5045691;28;20111;-60
2023/07/15 07:28:56;;;;;;;2.60;1.90;;;;;;;;;;5054729;28;20036;-60
2023/07/15 07:31:22;;;;;;;2.55;2.00;;;;;;;;;;5054818;28;20381;-60
2023/07/15 07:33:47;;;;;;;3.50;2.00;;;;;;;;;;5051528;28;20107;-68
2023/07/15 07:36:12;;;;;;;8.82;2.20;;;;;;;;;;5043057;28;20056;-61
2023/07/15 07:38:38;;;;;;;5.50;1.80;;;;;;;;;;5041720;28;20385;-61
2023/07/15 07:41:08;;;;;;;4.20;1.83;;;;;;;;;;5041866;28;20033;-60
2023/07/15 07:43:34;;;;;;;;;;;;;;;;;;5051303;28;20041;-61
2023/07/15 07:46:01;;;;;;;5.75;2.25;;;;;;;;;;5049453;28;20369;-60
2023/07/15 07:48:27;;;;;;;4.35;1.92;;;;;;;;;;5035036;28;20466;-63
2023/07/15 07:50:53;;;;;;;3.83;1.80;;;;;;;;;;5072724;28;20036;-62
2023/07/15 07:53:19;;;;;;;5.35;1.98;;;;;;;;;;5052838;28;20094;-61
2023/07/15 07:55:44;;;;;;;4.22;1.80;;;;;;;;;;5055603;28;20469;-61
2023/07/15 07:58:09;;;;;;;3.65;1.95;;;;;;;;;;5046188;28;20033;-61
2023/07/15 08:00:35;;;;;;;5.30;2.22;;;;;;;;;;5054643;28;20029;-60
2023/07/15 08:03:00;;;;;;;4.32;2.00;;;;;;;;;;5068874;28;20086;-62
2023/07/15 08:05:26;;;;;;;2.85;1.80;;;;;;;;;;5065802;28;20033;-61
2023/07/15 08:07:51;;;;;;;6.55;2.10;;;;;;;;;;5061973;28;20040;-60
2023/07/15 08:10:16;;;;;;;5.53;1.85;;;;;;;;;;5055563;28;20036;-60
2023/07/15 08:12:42;;;;;;;2.83;1.80;;;;;;;;;;5053765;28;20090;-61
2023/07/15 08:15:07;;;;;;;3.97;2.00;;;;;;;;;;5041874;28;20033;-61
2023/07/15 08:17:33;;;;;;;5.47;2.00;;;;;;;;;;5052356;28;20036;-61
2023/07/15 08:19:59;;;;;;;3.85;1.90;;;;;;;;;;5045753;28;20021;-60
2023/07/15 08:22:24;;;;;;;5.53;1.98;;;;;;;;;;5033747;28;20461;-60
2023/07/15 08:24:49;;;;;;;4.85;2.08;;;;;;;;;;5040807;28;20032;-61
2023/07/15 08:27:15;;;;;;;4.15;1.95;;;;;;;;;;5052644;28;20183;-60
2023/07/15 08:29:40;;;;;;;5.97;2.00;;;;;;;;;;5052931;28;20424;-60
2023/07/15 08:32:06;;;;;;;7.25;2.00;;;;;;;;;;5053404;28;20033;-60
2023/07/15 08:34:33;;;;;;;5.45;2.10;;;;;;;;;;5041567;28;20029;-63
2023/07/15 08:36:58;;;;;;;3.47;2.03;;;;;;;;;;5039093;28;20039;-64
2023/07/15 08:39:24;;;;;;;3.30;2.10;;;;;;;;;;5041293;28;20036;-67
2023/07/15 08:41:53;;;;;;;3.05;2.00;;;;;;;;;;5031950;28;20030;-64
2023/07/15 08:44:18;;;;;;;4.93;2.10;;;;;;;;;;5051319;28;20036;-64
2023/07/15 08:46:44;;;;;;;4.00;2.15;;;;;;;;;;5047385;28;20492;-64
2023/07/15 08:49:11;;;;;;;4.78;2.20;;;;;;;;;;5038567;28;20032;-64
2023/07/15 08:51:37;;;;;;;3.13;2.00;;;;;;;;;;5045842;28;20036;-64
2023/07/15 08:54:04;;;;;;;4.18;2.00;;;;;;;;;;5024931;28;20073;-64
2023/07/15 08:56:32;;;;;;;4.00;2.10;;;;;;;;;;5052890;28;20040;-64
2023/07/15 08:58:58;;;;;;;3.38;2.20;;;;;;;;;;5037642;28;20028;-64
2023/07/15 09:01:23;;;;;;;3.45;2.13;;;;;;;;;;5053127;28;20043;-64
2023/07/15 09:03:49;;;;;;;4.57;2.10;;;;;;;;;;5050832;28;20083;-64
2023/07/15 09:06:15;;;;;;;5.18;2.10;;;;;;;;;;5052825;28;20037;-64
2023/07/15 09:08:49;;;;;;;2.72;2.10;;;;;;;;;;5050972;28;20029;-65
2023/07/15 09:11:15;;;;;;;5.75;2.00;;;;;;;;;;5051527;28;20477;-64
2023/07/15 09:13:40;;;;;;;3.22;2.10;;;;;;;;;;5051729;28;20036;-60
2023/07/15 09:16:05;;;;;;;2.88;2.00;;;;;;;;;;5055056;28;20033;-60
2023/07/15 09:18:31;;;;;;;4.10;2.08;;;;;;;;;;5043621;28;20033;-60
2023/07/15 09:21:13;;;;;;;3.90;2.00;;;;;;;;;;5053232;28;20059;-60
2023/07/15 09:23:41;;;;;;;5.07;2.47;;;;;;;;;;5065289;28;20047;-60
2023/07/15 09:26:07;;;;;;;3.63;2.00;;;;;;;;;;5063011;28;20066;-60
2023/07/15 09:28:34;;;;;;;10.80;2.03;;;;;;;;;;5058314;28;20025;-62
2023/07/15 09:31:00;;;;;;;4.97;2.10;;;;;;;;;;5051665;28;20032;-60
2023/07/15 09:33:35;;;;;;;4.38;2.00;;;;;;;;;;5052137;28;20393;-59
2023/07/15 09:36:03;;;;;;;3.15;1.83;;;;;;;;;;5042702;28;20025;-60
2023/07/15 09:38:34;;;;;;;3.15;2.10;;;;;;;;;;5041299;28;20082;-60
2023/07/15 09:41:00;;;;;;;4.50;1.98;;;;;;;;;;5052003;28;20029;-60
2023/07/15 09:43:44;;;;;;;3.10;1.90;;;;;;;;;;5052263;28;20394;-60
2023/07/15 09:46:11;;;;;;;3.35;2.15;;;;;;;;;;5052100;28;20037;-60
2023/07/15 09:48:37;;;;;;;4.70;2.30;;;;;;;;;;5040443;28;20477;-61
2023/07/15 09:51:02;;;;;;;6.78;2.20;;;;;;;;;;5031844;28;20087;-60
2023/07/15 09:53:28;;;;;;;3.30;2.40;;;;;;;;;;5031990;28;20390;-60
2023/07/15 09:55:54;;;;;;;4.40;2.50;;;;;;;;;;5030961;28;20045;-60
2023/07/15 09:58:23;;;;;;;5.50;2.70;;;;;;;;;;5030953;28;20438;-60
2023/07/15 10:01:03;;;;;;;3.70;2.50;;;;;;;;;;5031234;28;20037;-60
2023/07/15 10:03:33;;;;;;;4.07;2.30;;;;;;;;;;5032116;28;20103;-60
2023/07/15 10:06:00;;;;;;;3.95;2.58;;;;;;;;;;5031194;28;20160;-60
2023/07/15 10:08:27;;;;;;;4.85;2.45;;;;;;;;;;5039991;28;20425;-61
2023/07/15 10:10:53;;;;;;;4.50;2.42;;;;;;;;;;5050732;28;20466;-60
2023/07/15 10:13:19;;;;;;;3.95;2.50;;;;;;;;;;5051900;28;20033;-60
2023/07/15 10:15:45;;;;;;;4.00;2.67;;;;;;;;;;5050813;28;20037;-60
2023/07/15 10:18:17;;;;;;;5.05;2.72;;;;;;;;;;5044411;28;20060;-60
2023/07/15 10:20:56;;;;;;;5.47;2.75;;;;;;;;;;5030754;28;20021;-61
2023/07/15 10:23:26;;;;;;;6.00;2.90;;;;;;;;;;5031958;28;20032;-60
2023/07/15 10:25:57;;;;;;;3.05;2.60;;;;;;;;;;5030569;28;20180;-60
2023/07/15 10:28:23;;;;;;;5.72;3.10;;;;;;;;;;5031338;28;20044;-60
2023/07/15 10:31:08;;;;;;;5.65;3.00;;;;;;;;;;5030322;28;20029;-60
2023/07/15 10:33:35;;;;;;;6.32;3.13;;;;;;;;;;5031563;28;20029;-60
2023/07/15 10:36:03;;;;;;;4.57;2.85;;;;;;;;;;5029313;28;20323;-60
2023/07/15 10:38:31;;;;;;;5.47;3.20;;;;;;;;;;5031391;28;20363;-60
2023/07/15 10:41:02;;;;;;;7.47;3.10;;;;;;;;;;5030810;28;20385;-60
2023/07/15 10:43:34;;;;;;;6.63;3.33;;;;;;;;;;5031619;28;20111;-60
2023/07/15 10:46:19;;;;;;;4.53;3.05;;;;;;;;;;5033554;28;20072;-60
2023/07/15 10:48:45;;;;;;;4.28;3.00;;;;;;;;;;5047298;28;20094;-60
2023/07/15 10:51:11;;;;;;;4.57;2.97;;;;;;;;;;5055496;28;20494;-60
2023/07/15 10:53:37;;;;;;;6.55;3.33;;;;;;;;;;5055312;28;20033;-61
2023/07/15 10:56:03;;;;;;;4.82;3.10;;;;;;;;;;5054286;28;20082;-59
2023/07/15 10:58:32;;;;;;;5.28;3.20;;;;;;;;;;5054433;28;20047;-60
2023/07/15 11:01:09;;;;;;;5.40;3.20;;;;;;;;;;5046818;28;20045;-59
2023/07/15 11:03:36;;;;;;;5.00;3.05;;;;;;;;;;5035303;28;20037;-61
2023/07/15 11:06:02;;;;;;;5.20;3.00;;;;;;;;;;5034382;28;20044;-61
2023/07/15 11:08:28;;;;;;;5.13;2.95;;;;;;;;;;5034776;28;20033;-60
2023/07/15 11:11:04;;;;;;;4.70;2.83;;;;;;;;;;5034300;28;20029;-61
2023/07/15 11:13:31;;;;;;;5.55;2.72;;;;;;;;;;5034041;28;20068;-61
2023/07/15 11:15:57;;;;;;;4.85;2.60;;;;;;;;;;5033867;28;20025;-61
2023/07/15 11:18:25;;;;;;;3.35;2.20;;;;;;;;;;5044341;28;20064;-60
2023/07/15 11:20:53;;;;;;;5.13;2.40;;;;;;;;;;5053889;28;20425;-61
2023/07/15 11:23:19;;;;;;;4.82;2.35;;;;;;;;;;5042057;28;20033;-60
2023/07/15 11:25:45;;;;;;;3.95;2.25;;;;;;;;;;5043584;28;20127;-61
2023/07/15 11:28:11;;;;;;;7.00;2.45;;;;;;;;;;5055206;28;20039;-60
2023/07/15 11:30:42;;;;;;;3.40;2.40;;;;;;;;;;5054771;28;20040;-60
2023/07/15 11:33:08;;;;;;;4.32;2.40;;;;;;;;;;5054476;28;20040;-61
2023/07/15 11:35:34;;;;;;;3.47;2.40;;;;;;;;;;5045741;28;20037;-60
2023/07/15 11:38:15;;;;;;;5.07;2.03;;;;;;;;;;5033870;28;20889;-60
2023/07/15 11:40:50;;;;;;;3.47;2.40;;;;;;;;;;5034502;28;20038;-61
2023/07/15 11:43:17;;;;;;;5.03;2.20;;;;;;;;;;5034332;28;20057;-61
2023/07/15 11:45:42;;;;;;;6.35;2.17;;;;;;;;;;5033285;28;20037;-63
2023/07/15 11:48:09;;;;;;;3.30;2.20;;;;;;;;;;5032887;28;20514;-61
2023/07/15 11:50:35;;;;;;;4.35;2.10;;;;;;;;;;5034419;28;20120;-61
2023/07/15 11:53:01;;;;;;;2.65;1.90;;;;;;;;;;5033442;28;20069;-60
2023/07/15 11:55:26;;;;;;;2.58;1.90;;;;;;;;;;5033519;28;20099;-60
2023/07/15 11:57:53;;;;;;;2.95;2.00;;;;;;;;;;5033657;28;20072;-61
2023/07/15 12:00:29;;;;;;;2.90;2.00;;;;;;;;;;5031837;28;20517;-60
2023/07/15 12:02:56;;;;;;;3.10;2.13;;;;;;;;;;5033084;28;20478;-60
2023/07/15 12:05:22;;;;;;;3.55;1.90;;;;;;;;;;5036977;28;20029;-60
2023/07/15 12:07:51;;;;;;;2.95;2.00;;;;;;;;;;5053008;28;20025;-61
2023/07/15 12:10:18;;;;;;;2.13;1.85;;;;;;;;;;5054065;28;20028;-60
2023/07/15 12:12:46;;;;;;;3.83;2.20;;;;;;;;;;5053648;28;20067;-61
2023/07/15 12:15:15;;;;;;;2.65;1.90;;;;;;;;;;5052900;28;20045;-61
2023/07/15 12:17:42;;;;;;;2.55;2.00;;;;;;;;;;5053759;28;20086;-61
2023/07/15 12:20:08;;;;;;;2.80;2.10;;;;;;;;;;5052957;28;20033;-60
2023/07/15 12:22:33;;;;;;;2.78;1.90;;;;;;;;;;5053186;28;20060;-60
2023/07/15 12:24:59;;;;;;;2.88;2.00;;;;;;;;;;5051708;28;20042;-61
2023/07/15 12:27:24;;;;;;;3.35;2.58;;;;;;;;;;5053609;28;20041;-61
2023/07/15 12:29:50;;;;;;;3.25;2.00;;;;;;;;;;5052883;28;20036;-61
2023/07/15 12:32:16;;;;;;;3.13;2.17;;;;;;;;;;5053672;28;20100;-62
2023/07/15 12:34:41;;;;;;;3.25;2.20;;;;;;;;;;5049357;28;20434;-61
2023/07/15 12:37:07;;;;;;;2.92;2.00;;;;;;;;;;5036598;28;20042;-61
2023/07/15 12:39:32;;;;;;;3.05;2.30;;;;;;;;;;5034457;28;20124;-60
2023/07/15 12:41:57;;;;;;;3.33;2.10;;;;;;;;;;5032721;28;20446;-61
2023/07/15 12:44:23;;;;;;;4.30;2.30;;;;;;;;;;5032691;28;20441;-61
2023/07/15 12:46:48;;;;;;;4.78;2.50;;;;;;;;;;5032591;28;20444;-62
2023/07/15 12:49:14;;;;;;;3.30;2.30;;;;;;;;;;5033622;28;20057;-60
2023/07/15 12:51:39;;;;;;;4.32;2.53;;;;;;;;;;5033339;28;20025;-60
2023/07/15 12:54:04;;;;;;;2.72;2.20;;;;;;;;;;5032375;28;20198;-61
2023/07/15 12:56:30;;;;;;;3.92;2.20;;;;;;;;;;5049652;28;20021;-61
2023/07/15 12:58:55;;;;;;;2.95;2.20;;;;;;;;;;5052097;28;20518;-62
2023/07/15 13:01:20;;;;;;;4.80;2.70;;;;;;;;;;5052995;28;20044;-61
2023/07/15 13:03:46;;;;;;;3.35;2.58;;;;;;;;;;5052740;28;20025;-62
2023/07/15 13:06:11;;;;;;;5.70;2.67;;;;;;;;;;5036610;28;20033;-59
2023/07/15 13:08:37;;;;;;;3.55;2.50;;;;;;;;;;5032488;28;20037;-60
2023/07/15 13:11:02;;;;;;;3.75;2.60;;;;;;;;;;5034450;28;20033;-60
2023/07/15 13:13:28;;;;;;;4.57;2.40;;;;;;;;;;5032760;28;20128;-61
2023/07/15 13:15:53;;;;;;;3.40;2.40;;;;;;;;;;5031894;28;20347;-61
2023/07/15 13:18:20;;;;;;;3.08;2.20;;;;;;;;;;5032610;28;20176;-62
2023/07/15 13:20:46;;;;;;;3.75;2.67;;;;;;;;;;5032297;28;20044;-59
2023/07/15 13:23:11;;;;;;;3.80;2.40;;;;;;;;;;5044697;28;20032;-59
2023/07/15 13:25:37;;;;;;;3.28;2.35;;;;;;;;;;5051643;28;20037;-60
2023/07/15 13:28:03;;;;;;;3.45;2.53;;;;;;;;;;5051413;28;20036;-60
2023/07/15 13:30:28;;;;;;;3.55;2.60;;;;;;;;;;5052645;28;20029;-60
2023/07/15 13:32:54;;;;;;;5.05;2.90;;;;;;;;;;5048178;28;20031;-60
2023/07/15 13:35:19;;;;;;;4.28;2.50;;;;;;;;;;5052202;28;20041;-60
2023/07/15 13:37:45;;;;;;;3.55;2.50;;;;;;;;;;5052109;28;20040;-61
2023/07/15 13:40:10;;;;;;;5.00;2.63;;;;;;;;;;5051365;28;20025;-60
2023/07/15 13:42:36;;;;;;;6.35;2.60;;;;;;;;;;5035120;28;20072;-60
2023/07/15 13:45:02;;;;;;;4.15;2.40;;;;;;;;;;5031341;28;20463;-60
2023/07/15 13:47:27;;;;;;;4.45;2.50;;;;;;;;;;5032413;28;20470;-60
2023/07/15 13:49:52;;;;;;;3.88;2.53;;;;;;;;;;5031146;28;20028;-61
2023/07/15 13:52:18;;;;;;;3.22;2.45;;;;;;;;;;5041862;28;20510;-60
2023/07/15 13:54:43;;;;;;;5.50;2.58;;;;;;;;;;5052108;28;20025;-60
2023/07/15 13:57:08;;;;;;;5.43;2.67;;;;;;;;;;5049713;28;20155;-60
2023/07/15 13:59:34;;;;;;;3.55;2.65;;;;;;;;;;5051891;28;20037;-60
2023/07/15 14:02:00;;;;;;;3.88;2.70;;;;;;;;;;5040656;28;20068;-60
2023/07/15 14:04:25;;;;;;;5.82;2.80;;;;;;;;;;5032149;28;20116;-61
2023/07/15 14:06:50;;;;;;;3.97;2.47;;;;;;;;;;5031776;28;20489;-61
2023/07/15 14:09:16;;;;;;;3.85;2.50;;;;;;;;;;5031199;28;20033;-60
2023/07/15 14:11:45;;;;;;;4.38;2.60;;;;;;;;;;5031768;28;20033;-60
2023/07/15 14:14:11;;;;;;;4.15;2.80;;;;;;;;;;5030768;28;20105;-60
2023/07/15 14:16:36;;;;;;;3.38;2.50;;;;;;;;;;5030529;28;20021;-62
2023/07/15 14:19:03;;;;;;;3.75;2.70;;;;;;;;;;5031000;28;20034;-61
2023/07/15 14:21:29;;;;;;;4.97;2.75;;;;;;;;;;5034685;28;20120;-61
2023/07/15 14:23:55;;;;;;;3.58;2.70;;;;;;;;;;5049630;28;20056;-63
2023/07/15 14:26:20;;;;;;;4.30;2.90;;;;;;;;;;5051900;28;20470;-60
2023/07/15 14:28:45;;;;;;;6.60;2.90;;;;;;;;;;5057802;28;20474;-61
2023/07/15 14:31:11;;;;;;;4.40;2.70;;;;;;;;;;5050585;28;20118;-61
2023/07/15 14:33:36;;;;;;;5.93;2.70;;;;;;;;;;5051634;28;20462;-60
2023/07/15 14:36:02;;;;;;;4.05;2.70;;;;;;;;;;5050649;28;20116;-61
2023/07/15 14:38:28;;;;;;;4.03;2.80;;;;;;;;;;5051415;28;20029;-61